Time;durP1;ratioP1;P1;durP2;ratioP2;P2;SDS_P1;SDS_P2;PMS_P1;PMS_P2;Temp;Humidity;BMP_temperature;BMP_pressure;BME280_temperature;BME280_humidity;BME280_pressure;Samples;Min_cycle;Max_cycle;Signal;HPM_P1;HPM_P2
2022/06/11 00:01:32;;;;;;;15.43;5.75;;;16.60;99.90;;;;;;5032267;28;20126;-78
2022/06/11 00:04:08;;;;;;;13.38;6.20;;;16.60;99.90;;;;;;5032376;28;20033;-78
2022/06/11 00:06:37;;;;;;;12.65;5.70;;;16.70;99.90;;;;;;5015797;28;20091;-80
2022/06/11 00:09:05;;;;;;;12.77;5.72;;;16.70;99.90;;;;;;5032832;28;20423;-78
2022/06/11 00:11:31;;;;;;;11.32;5.15;;;16.70;99.90;;;;;;5032202;28;20064;-78
2022/06/11 00:13:57;;;;;;;12.85;5.43;;;16.60;99.90;;;;;;5033332;28;20484;-77
2022/06/11 00:16:24;;;;;;;15.48;5.28;;;16.60;99.90;;;;;;5031956;28;20566;-78
2022/06/11 00:18:53;;;;;;;7.85;4.68;;;16.70;99.90;;;;;;5032054;28;20057;-77
2022/06/11 00:21:20;;;;;;;11.90;4.95;;;16.60;99.90;;;;;;5014638;28;20621;-78
2022/06/11 00:23:46;;;;;;;12.98;5.72;;;16.60;99.90;;;;;;5015441;28;20049;-77
2022/06/11 00:26:12;;;;;;;9.32;4.90;;;16.60;99.90;;;;;;5031845;28;20120;-78
2022/06/11 00:28:38;;;;;;;6.50;4.18;;;16.60;99.90;;;;;;5033313;28;20496;-79
2022/06/11 00:31:05;;;;;;;12.55;5.00;;;16.50;99.90;;;;;;5031938;28;20095;-77
2022/06/11 00:33:31;;;;;;;14.05;5.28;;;16.50;99.90;;;;;;5032208;28;20106;-79
2022/06/11 00:35:57;;;;;;;10.15;4.88;;;16.50;99.90;;;;;;5031885;28;20116;-78
2022/06/11 00:38:23;;;;;;;7.05;4.50;;;16.40;99.90;;;;;;5032099;28;20116;-80
2022/06/11 00:40:51;;;;;;;7.80;4.45;;;16.40;99.90;;;;;;5031598;28;20108;-78
2022/06/11 00:43:19;;;;;;;8.30;4.72;;;16.30;99.90;;;;;;5031419;28;20037;-80
2022/06/11 00:45:58;;;;;;;13.50;5.13;;;16.30;99.90;;;;;;5015200;28;20073;-80
2022/06/11 00:48:33;;;;;;;10.32;4.82;;;16.30;99.90;;;;;;5032762;28;20041;-78
2022/06/11 00:51:26;;;;;;;11.10;4.57;;;16.20;99.90;;;;;;5032543;28;20041;-80
2022/06/11 00:53:56;;;;;;;9.30;4.65;;;16.20;99.90;;;;;;5029878;28;20092;-78
2022/06/11 00:56:33;;;;;;;11.55;4.97;;;16.20;99.90;;;;;;5031682;28;20413;-78
2022/06/11 00:59:02;;;;;;;10.25;4.60;;;16.10;99.90;;;;;;5031429;28;20531;-78
2022/06/11 01:01:29;;;;;;;9.25;5.03;;;16.20;99.90;;;;;;5030936;28;20052;-78
2022/06/11 01:03:58;;;;;;;6.32;5.22;;;16.20;99.90;;;;;;5031685;28;20064;-79
2022/06/11 01:06:39;;;;;;;7.63;5.30;;;16.20;99.90;;;;;;5032845;28;20096;-77
2022/06/11 01:09:24;;;;;;;16.25;5.35;;;16.10;99.90;;;;;;5032717;28;20041;-79
2022/06/11 01:12:13;;;;;;;9.45;5.18;;;16.10;99.90;;;;;;5031525;28;20055;-79
2022/06/11 01:14:51;;;;;;;9.85;5.38;;;16.10;99.90;;;;;;5032070;28;20044;-79
2022/06/11 01:17:51;;;;;;;10.98;5.70;;;16.00;99.90;;;;;;5032519;28;20400;-79
2022/06/11 01:20:22;;;;;;;7.85;4.50;;;15.90;99.90;;;;;;5030873;28;20094;-79
2022/06/11 01:23:38;;;;;;;9.57;5.25;;;15.90;99.90;;;;;;4998350;28;20038;-79
2022/06/11 01:26:22;;;;;;;15.68;5.85;;;15.80;99.90;;;;;;4981089;28;20057;-78
2022/06/11 01:29:03;;;;;;;11.48;5.95;;;15.70;99.90;;;;;;5014697;28;20046;-79
2022/06/11 01:31:37;;;;;;;8.82;5.00;;;15.60;99.90;;;;;;5014120;28;20048;-78
2022/06/11 01:34:24;;;;;;;9.82;5.05;;;15.60;99.90;;;;;;5014201;28;20055;-79
2022/06/11 01:36:55;;;;;;;11.75;5.53;;;15.60;99.90;;;;;;5030938;28;20045;-79
2022/06/11 01:39:51;;;;;;;10.50;5.28;;;15.50;99.90;;;;;;5030701;28;20045;-78
2022/06/11 01:42:44;;;;;;;9.27;5.57;;;15.40;99.90;;;;;;5014062;28;20037;-79
2022/06/11 01:45:19;;;;;;;9.55;5.57;;;15.40;99.90;;;;;;4993544;28;20053;-79
2022/06/11 01:47:45;;;;;;;10.27;5.15;;;15.30;99.90;;;;;;5014091;28;20049;-78
2022/06/11 01:50:14;;;;;;;9.32;5.60;;;15.30;99.90;;;;;;5031955;28;20045;-78
2022/06/11 01:52:53;;;;;;;9.00;5.45;;;15.30;99.90;;;;;;5032614;28;20053;-78
2022/06/11 01:55:32;;;;;;;10.88;5.15;;;15.30;99.90;;;;;;5032864;28;20044;-77
2022/06/11 01:58:15;;;;;;;12.55;5.78;;;15.30;99.90;;;;;;5016886;28;20041;-78
2022/06/11 02:01:28;;;;;;;11.93;6.25;;;15.40;99.90;;;;;;5015271;28;20459;-79
2022/06/11 02:04:03;;;;;;;16.83;5.90;;;15.30;99.90;;;;;;5031982;28;20049;-78
2022/06/11 02:06:55;;;;;;;9.02;5.63;;;15.30;99.90;;;;;;5032880;28;20044;-79
2022/06/11 02:09:24;;;;;;;11.32;5.38;;;15.30;99.90;;;;;;5023178;28;20109;-79
2022/06/11 02:12:00;;;;;;;9.25;5.72;;;15.30;99.90;;;;;;5038904;28;20105;-77
2022/06/11 02:14:36;;;;;;;11.65;5.72;;;15.30;99.90;;;;;;5046801;28;20199;-78
2022/06/11 02:17:05;;;;;;;10.60;5.57;;;15.20;99.90;;;;;;5029869;28;20117;-78
2022/06/11 02:19:40;;;;;;;16.50;6.07;;;15.20;99.90;;;;;;5012981;28;20501;-78
2022/06/11 02:22:29;;;;;;;9.82;4.82;;;15.20;99.90;;;;;;5013555;28;20042;-78
2022/06/11 02:25:26;;;;;;;9.40;6.25;;;15.10;99.90;;;;;;5013155;28;20523;-78
2022/06/11 02:27:57;;;;;;;7.80;5.43;;;15.10;99.90;;;;;;5029073;28;20085;-78
2022/06/11 02:30:26;;;;;;;13.05;5.63;;;15.00;99.90;;;;;;5013148;28;20033;-78
2022/06/11 02:32:52;;;;;;;10.00;6.50;;;15.00;99.90;;;;;;5029599;28;20163;-79
2022/06/11 02:35:43;;;;;;;10.70;6.10;;;15.00;99.90;;;;;;5013127;28;20128;-78
2022/06/11 02:38:15;;;;;;;11.02;5.78;;;15.00;99.90;;;;;;5029666;28;20129;-78
2022/06/11 02:40:44;;;;;;;12.75;7.30;;;14.90;99.90;;;;;;5030703;28;20044;-78
2022/06/11 02:43:10;;;;;;;13.57;8.07;;;14.90;99.90;;;;;;5030716;28;20049;-80
2022/06/11 02:45:36;;;;;;;17.60;8.32;;;14.90;99.90;;;;;;5032497;28;20103;-78
2022/06/11 02:48:02;;;;;;;19.17;8.25;;;14.80;99.90;;;;;;5033298;28;20514;-78
2022/06/11 02:50:31;;;;;;;14.55;8.30;;;14.80;99.90;;;;;;5033197;28;20048;-78
2022/06/11 02:52:59;;;;;;;18.08;9.65;;;14.80;99.90;;;;;;5016764;28;20049;-80
2022/06/11 02:55:25;;;;;;;13.10;8.90;;;14.80;99.90;;;;;;5034504;28;20042;-79
2022/06/11 02:57:51;;;;;;;18.15;9.05;;;14.80;99.90;;;;;;5016689;28;20524;-78
2022/06/11 03:00:25;;;;;;;16.10;9.75;;;14.70;99.90;;;;;;5016411;28;20120;-79
2022/06/11 03:02:51;;;;;;;16.83;9.27;;;14.70;99.90;;;;;;5016783;28;20049;-78
2022/06/11 03:05:20;;;;;;;20.17;9.73;;;14.70;99.90;;;;;;5033005;28;20389;-78
2022/06/11 03:07:47;;;;;;;12.13;8.40;;;14.70;99.90;;;;;;5016720;28;20499;-78
2022/06/11 03:10:15;;;;;;;14.00;7.97;;;14.70;99.90;;;;;;5033036;28;20045;-79
2022/06/11 03:12:40;;;;;;;15.00;7.80;;;14.70;99.90;;;;;;5032953;28;20117;-77
2022/06/11 03:15:07;;;;;;;19.17;7.35;;;14.60;99.90;;;;;;5016539;28;20128;-77
2022/06/11 03:17:33;;;;;;;16.55;7.72;;;14.60;99.90;;;;;;5032906;28;20045;-77
2022/06/11 03:19:59;;;;;;;12.68;6.63;;;14.60;99.90;;;;;;5016378;28;20400;-77
2022/06/11 03:22:25;;;;;;;14.20;7.10;;;14.60;99.90;;;;;;5032806;28;20049;-78
2022/06/11 03:24:51;;;;;;;11.20;6.80;;;14.60;99.90;;;;;;5032646;28;20053;-78
2022/06/11 03:27:17;;;;;;;8.52;6.00;;;14.60;99.90;;;;;;5032602;28;20068;-77
2022/06/11 03:29:44;;;;;;;11.35;5.95;;;14.60;99.90;;;;;;5032405;28;20129;-77
2022/06/11 03:32:09;;;;;;;11.10;6.47;;;14.60;99.90;;;;;;5033983;28;20651;-77
2022/06/11 03:34:35;;;;;;;12.15;5.93;;;14.60;99.90;;;;;;5033800;28;20045;-78
2022/06/11 03:37:03;;;;;;;14.93;5.32;;;14.50;99.90;;;;;;5032727;28;20084;-77
2022/06/11 03:39:29;;;;;;;11.35;5.18;;;14.50;99.90;;;;;;5032356;28;20511;-77
2022/06/11 03:41:55;;;;;;;8.13;5.20;;;14.50;99.90;;;;;;5033606;28;20477;-78
2022/06/11 03:44:22;;;;;;;13.30;5.22;;;14.50;99.90;;;;;;5032198;28;20432;-77
2022/06/11 03:46:48;;;;;;;10.35;4.15;;;14.50;99.90;;;;;;5032425;28;20515;-77
2022/06/11 03:49:16;;;;;;;10.05;4.38;;;14.50;99.90;;;;;;5032419;28;20045;-77
2022/06/11 03:51:43;;;;;;;10.85;3.70;;;14.50;99.90;;;;;;5033314;28;20073;-77
2022/06/11 03:54:10;;;;;;;10.23;3.72;;;14.50;99.90;;;;;;5032193;28;20519;-78
2022/06/11 03:56:38;;;;;;;19.70;4.63;;;14.50;99.90;;;;;;5030748;28;20045;-77
2022/06/11 03:59:05;;;;;;;10.32;3.30;;;14.50;99.90;;;;;;5032242;28;20045;-78
2022/06/11 04:01:31;;;;;;;14.55;3.55;;;14.50;99.90;;;;;;5031849;28;20048;-78
2022/06/11 04:04:02;;;;;;;9.95;3.60;;;14.50;99.90;;;;;;5031851;28;20113;-77
2022/06/11 04:06:29;;;;;;;8.23;3.10;;;14.60;99.90;;;;;;5015427;28;20048;-77
2022/06/11 04:08:55;;;;;;;11.27;2.92;;;14.50;99.90;;;;;;5015491;28;20045;-78
2022/06/11 04:11:22;;;;;;;13.88;3.17;;;14.60;99.90;;;;;;5031637;28;20038;-78
2022/06/11 04:13:48;;;;;;;8.55;2.65;;;14.60;99.90;;;;;;5032029;28;20037;-78
2022/06/11 04:16:27;;;;;;;12.13;3.30;;;14.60;99.90;;;;;;5031881;28;20094;-76
2022/06/11 04:18:55;;;;;;;10.65;2.65;;;14.60;99.90;;;;;;5031730;28;20053;-79
2022/06/11 04:21:22;;;;;;;11.82;2.58;;;14.60;99.90;;;;;;5031655;28;20061;-79
2022/06/11 04:23:50;;;;;;;7.88;2.70;;;14.60;99.90;;;;;;5031447;28;20120;-78
2022/06/11 04:26:20;;;;;;;8.13;2.47;;;14.60;99.90;;;;;;5031682;28;20041;-77
2022/06/11 04:28:47;;;;;;;12.13;3.15;;;14.60;99.90;;;;;;5015174;28;20052;-78
2022/06/11 04:31:15;;;;;;;10.20;3.47;;;14.60;99.90;;;;;;5031308;28;20124;-77
2022/06/11 04:33:42;;;;;;;13.40;3.80;;;14.60;99.90;;;;;;5031339;28;20049;-78
2022/06/11 04:36:08;;;;;;;10.23;2.78;;;14.60;99.90;;;;;;5031689;28;20042;-77
2022/06/11 04:38:34;;;;;;;6.75;2.55;;;14.70;99.90;;;;;;5031198;28;20037;-78
2022/06/11 04:41:01;;;;;;;6.80;2.65;;;14.70;99.90;;;;;;5031370;28;20053;-78
2022/06/11 04:43:26;;;;;;;8.60;2.95;;;14.80;99.90;;;;;;5030976;28;20048;-77
2022/06/11 04:45:52;;;;;;;10.05;3.10;;;14.80;99.90;;;;;;5031554;28;20030;-78
2022/06/11 04:48:17;;;;;;;14.27;3.80;;;15.00;99.90;;;;;;5031448;28;20049;-78
2022/06/11 04:50:43;;;;;;;9.82;3.30;;;15.30;99.90;;;;;;5030774;28;20046;-77
2022/06/11 04:53:09;;;;;;;8.02;2.90;;;15.70;99.90;;;;;;5030767;28;20052;-78
2022/06/11 04:55:35;;;;;;;10.13;3.30;;;15.90;99.90;;;;;;5031041;28;20057;-78
2022/06/11 04:58:02;;;;;;;10.90;3.70;;;16.10;99.90;;;;;;5031282;28;20500;-77
2022/06/11 05:00:30;;;;;;;13.68;3.53;;;16.10;99.90;;;;;;5030844;28;20044;-77
2022/06/11 05:02:56;;;;;;;9.25;3.63;;;16.20;99.90;;;;;;5031008;28;20049;-78
2022/06/11 05:05:22;;;;;;;11.35;3.35;;;16.40;99.90;;;;;;5030599;28;20045;-77
2022/06/11 05:07:49;;;;;;;6.20;2.80;;;16.70;99.90;;;;;;5030439;28;20048;-78
2022/06/11 05:10:19;;;;;;;12.65;3.90;;;17.10;99.90;;;;;;5030748;28;20041;-78
2022/06/11 05:12:45;;;;;;;13.00;3.50;;;17.50;99.90;;;;;;5031058;28;20041;-79
2022/06/11 05:15:11;;;;;;;7.03;3.10;;;18.00;99.90;;;;;;5030634;28;20049;-78
2022/06/11 05:17:37;;;;;;;8.35;3.72;;;18.40;99.90;;;;;;5030651;28;20411;-79
2022/06/11 05:20:04;;;;;;;8.50;2.92;;;18.70;99.90;;;;;;5030318;28;20041;-78
2022/06/11 05:22:30;;;;;;;9.63;3.10;;;19.00;99.90;;;;;;5013984;28;20488;-78
2022/06/11 05:24:56;;;;;;;8.68;2.60;;;19.30;99.90;;;;;;5014306;28;20053;-78
2022/06/11 05:27:24;;;;;;;7.05;3.08;;;19.50;99.90;;;;;;5030621;28;20116;-78
2022/06/11 05:30:00;;;;;;;7.35;2.80;;;19.70;99.90;;;;;;5030255;28;20041;-77
2022/06/11 05:32:30;;;;;;;8.98;3.72;;;19.80;99.90;;;;;;5030462;28;20045;-77
2022/06/11 05:34:58;;;;;;;8.32;2.60;;;20.00;99.90;;;;;;5030561;28;20053;-79
2022/06/11 05:37:24;;;;;;;10.60;3.15;;;20.30;99.90;;;;;;5030493;28;20045;-78
2022/06/11 05:39:50;;;;;;;9.63;2.67;;;20.50;99.90;;;;;;5036398;28;20054;-80
2022/06/11 05:42:17;;;;;;;7.20;2.85;;;20.70;99.90;;;;;;5030464;28;20049;-77
2022/06/11 05:44:44;;;;;;;14.80;3.15;;;20.70;99.90;;;;;;5040671;28;20473;-78
2022/06/11 05:47:14;;;;;;;9.27;3.05;;;20.80;99.90;;;;;;5031122;28;20041;-78
2022/06/11 05:49:43;;;;;;;9.60;2.53;;;20.90;99.90;;;;;;5032521;28;20077;-79
2022/06/11 05:52:15;;;;;;;11.18;2.90;;;21.00;99.90;;;;;;5033870;28;20089;-80
2022/06/11 05:54:41;;;;;;;10.25;2.70;;;21.10;99.90;;;;;;5017995;28;20432;-81
2022/06/11 05:57:11;;;;;;;9.45;3.13;;;21.10;99.90;;;;;;5035223;28;20041;-79
2022/06/11 05:59:43;;;;;;;11.82;3.50;;;21.10;99.90;;;;;;5033474;28;20029;-79
2022/06/11 06:02:12;;;;;;;11.90;2.78;;;21.20;99.90;;;;;;5033523;28;20049;-80
2022/06/11 06:04:38;;;;;;;12.15;4.03;;;21.30;99.90;;;;;;5033471;28;20041;-81
2022/06/11 06:07:05;;;;;;;16.88;3.28;;;21.50;99.90;;;;;;5015900;28;20083;-80
2022/06/11 06:09:31;;;;;;;8.65;2.83;;;21.70;99.90;;;;;;5033014;28;20041;-80
2022/06/11 06:11:56;;;;;;;13.93;3.47;;;21.70;99.90;;;;;;5033659;28;20087;-78
2022/06/11 06:14:22;;;;;;;9.65;2.63;;;21.80;99.90;;;;;;5017179;28;20080;-79
2022/06/11 06:16:48;;;;;;;11.88;2.97;;;21.90;99.90;;;;;;5033102;28;20041;-81
2022/06/11 06:19:13;;;;;;;16.23;3.00;;;21.80;99.90;;;;;;5033701;28;20104;-81
2022/06/11 06:21:39;;;;;;;13.55;3.03;;;21.70;99.90;;;;;;5016164;28;20041;-80
2022/06/11 06:24:05;;;;;;;13.98;2.90;;;21.80;99.90;;;;;;5033866;28;20049;-79
2022/06/11 06:26:31;;;;;;;10.32;2.95;;;22.00;99.90;;;;;;5034320;28;20041;-80
2022/06/11 06:28:57;;;;;;;11.10;2.90;;;22.10;99.90;;;;;;5033392;28;20097;-81
2022/06/11 06:31:23;;;;;;;15.63;3.47;;;22.20;99.90;;;;;;5017017;28;20049;-81
2022/06/11 06:33:50;;;;;;;12.48;3.05;;;22.30;99.90;;;;;;5016322;28;20045;-82
2022/06/11 06:36:16;;;;;;;12.30;3.40;;;22.50;99.90;;;;;;5031458;28;20121;-81
2022/06/11 06:38:43;;;;;;;9.95;2.60;;;22.70;99.90;;;;;;5017010;28;20065;-80
2022/06/11 06:41:10;;;;;;;15.20;3.28;;;22.80;99.90;;;;;;5016399;28;20052;-81
2022/06/11 06:43:36;;;;;;;14.43;3.38;;;22.90;99.90;;;;;;5015973;28;20064;-81
2022/06/11 06:46:02;;;;;;;10.77;3.42;;;22.90;99.90;;;;;;5014621;28;20402;-81
2022/06/11 06:48:28;;;;;;;15.60;4.38;;;23.00;99.90;;;;;;5014391;28;20547;-82
2022/06/11 06:50:53;;;;;;;13.40;3.60;;;23.10;99.90;;;;;;5013701;28;20116;-80
2022/06/11 06:53:20;;;;;;;16.38;4.00;;;23.10;99.90;;;;;;5014333;28;20076;-82
2022/06/11 06:55:46;;;;;;;12.38;3.80;;;22.90;99.90;;;;;;5033818;28;20041;-81
2022/06/11 06:58:14;;;;;;;16.48;4.10;;;22.90;99.90;;;;;;5016639;28;20045;-82
2022/06/11 07:00:41;;;;;;;13.35;3.28;;;23.00;99.90;;;;;;5017309;28;20062;-82
2022/06/11 07:03:06;;;;;;;13.45;3.05;;;23.00;99.90;;;;;;5015679;28;20049;-82
2022/06/11 07:05:32;;;;;;;18.95;3.45;;;23.10;99.90;;;;;;5031616;28;20034;-84
2022/06/11 07:07:58;;;;;;;19.55;3.58;;;23.00;99.90;;;;;;5030465;28;20076;-80
2022/06/11 07:10:25;;;;;;;20.83;4.07;;;23.20;99.90;;;;;;5031287;28;20053;-82
2022/06/11 07:12:51;;;;;;;17.75;4.07;;;23.30;99.90;;;;;;5030050;28;20389;-82
2022/06/11 07:15:17;;;;;;;12.27;3.28;;;23.40;99.90;;;;;;5013251;28;20072;-80
2022/06/11 07:17:52;;;;;;;24.23;3.97;;;23.50;99.90;;;;;;5013603;28;20052;-82
2022/06/11 07:20:25;;;;;;;13.57;3.40;;;23.60;99.90;;;;;;5030724;28;20120;-81
2022/06/11 07:23:12;;;;;;;13.60;3.63;;;23.50;99.90;;;;;;5030979;28;20041;-81
2022/06/11 07:25:41;;;;;;;17.73;3.80;;;23.30;99.90;;;;;;5015105;28;20103;-82
2022/06/11 07:28:15;;;;;;;16.20;3.88;;;23.40;99.90;;;;;;5032826;28;20497;-81
2022/06/11 07:30:42;;;;;;;16.95;4.05;;;23.40;99.90;;;;;;5033874;28;20094;-82
2022/06/11 07:33:14;;;;;;;17.27;3.38;;;23.50;99.90;;;;;;5036610;28;20071;-82
2022/06/11 07:35:40;;;;;;;13.55;3.35;;;23.80;99.90;;;;;;5036172;28;20065;-79
2022/06/11 07:38:10;;;;;;;19.60;3.80;;;23.90;99.90;;;;;;5036816;28;20041;-82
2022/06/11 07:40:35;;;;;;;18.13;3.80;;;24.10;99.90;;;;;;5035290;28;20520;-80
2022/06/11 07:43:01;;;;;;;15.38;3.95;;;24.40;99.90;;;;;;5035590;28;20126;-82
2022/06/11 07:45:27;;;;;;;15.57;3.40;;;24.80;99.90;;;;;;5034321;28;20500;-82
2022/06/11 07:47:55;;;;;;;22.20;3.47;;;25.00;99.90;;;;;;5034326;28;20053;-81
2022/06/11 07:50:28;;;;;;;17.33;3.90;;;24.80;99.90;;;;;;5035208;28;20073;-82
2022/06/11 07:52:55;;;;;;;14.73;3.10;;;24.50;99.90;;;;;;5035026;28;20584;-82
2022/06/11 07:55:21;;;;;;;16.05;3.53;;;24.30;99.90;;;;;;5018874;28;20068;-82
2022/06/11 07:57:47;;;;;;;16.65;3.40;;;24.10;99.90;;;;;;5012809;28;20030;-81
2022/06/11 08:00:19;;;;;;;18.80;4.45;;;24.00;99.90;;;;;;5034152;28;20451;-82
2022/06/11 08:02:44;;;;;;;14.02;3.45;;;24.00;99.90;;;;;;5032918;28;20444;-83
2022/06/11 08:05:10;;;;;;;10.63;2.80;;;24.20;99.90;;;;;;5016899;28;20133;-81
2022/06/11 08:07:36;;;;;;;18.65;3.17;;;24.10;99.90;;;;;;5032774;28;20121;-81
2022/06/11 08:10:02;;;;;;;17.63;3.60;;;24.20;99.90;;;;;;5035221;28;20493;-80
2022/06/11 08:12:28;;;;;;;15.80;3.78;;;24.20;99.90;;;;;;5034853;28;20080;-81
2022/06/11 08:14:56;;;;;;;17.90;3.72;;;24.30;99.90;;;;;;5035212;28;20634;-81
2022/06/11 08:17:25;;;;;;;12.10;3.15;;;24.70;99.90;;;;;;5035511;28;20049;-81
2022/06/11 08:19:51;;;;;;;17.27;3.38;;;24.60;99.90;;;;;;5035453;28;20864;-82
2022/06/11 08:22:17;;;;;;;16.33;3.22;;;24.30;99.90;;;;;;5033423;28;20045;-82
2022/06/11 08:24:42;;;;;;;17.17;3.30;;;23.90;99.90;;;;;;5032918;28;20484;-81
2022/06/11 08:27:08;;;;;;;13.73;2.88;;;23.80;99.90;;;;;;5033837;28;20037;-80
2022/06/11 08:29:34;;;;;;;11.90;2.80;;;23.80;99.90;;;;;;5017701;28;20033;-82
2022/06/11 08:31:59;;;;;;;21.00;3.45;;;24.00;99.90;;;;;;5034141;28;20048;-81
2022/06/11 08:34:25;;;;;;;14.52;2.70;;;24.00;99.90;;;;;;5032187;28;20053;-80
2022/06/11 08:36:51;;;;;;;15.77;3.75;;;24.10;99.90;;;;;;5016164;28;20110;-81
2022/06/11 08:39:17;;;;;;;16.20;3.78;;;24.20;99.90;;;;;;5033063;28;20083;-81
2022/06/11 08:41:42;;;;;;;17.15;3.65;;;24.20;99.90;;;;;;5032050;28;20045;-80
2022/06/11 08:44:14;;;;;;;14.57;3.47;;;24.00;99.90;;;;;;5032664;28;20037;-80
2022/06/11 08:46:42;;;;;;;18.52;3.40;;;23.80;99.90;;;;;;5032565;28;20060;-80
2022/06/11 08:49:30;;;;;;;14.90;3.70;;;23.80;99.90;;;;;;5015976;28;20451;-80
2022/06/11 08:52:09;;;;;;;20.42;4.32;;;24.10;99.90;;;;;;5032291;28;20103;-81
2022/06/11 08:54:39;;;;;;;14.40;3.92;;;24.20;99.90;;;;;;5016061;28;20485;-81
2022/06/11 08:57:20;;;;;;;14.68;3.45;;;24.20;99.90;;;;;;5032375;28;20037;-81
2022/06/11 09:00:02;;;;;;;14.98;3.88;;;24.30;99.90;;;;;;5029442;28;20038;-79
2022/06/11 09:02:31;;;;;;;13.10;3.05;;;24.50;99.50;;;;;;5009336;28;20408;-82
2022/06/11 09:05:13;;;;;;;17.35;3.47;;;24.50;99.90;;;;;;5032531;28;20045;-81
2022/06/11 09:07:50;;;;;;;14.88;3.53;;;24.60;99.90;;;;;;5028503;28;20116;-81
2022/06/11 09:10:46;;;;;;;13.88;2.97;;;24.60;99.20;;;;;;5002242;28;20121;-79
2022/06/11 09:13:33;;;;;;;12.15;3.28;;;24.60;97.30;;;;;;5030978;28;20076;-79
2022/06/11 09:16:18;;;;;;;16.33;3.92;;;24.80;97.60;;;;;;5035639;28;20058;-78
2022/06/11 09:19:08;;;;;;;15.80;3.83;;;25.00;95.20;;;;;;5006335;28;20053;-80
2022/06/11 09:21:34;;;;;;;12.13;3.22;;;25.10;96.30;;;;;;5005598;28;20026;-82
2022/06/11 09:24:24;;;;;;;15.85;3.28;;;25.20;95.80;;;;;;5012114;28;20136;-81
2022/06/11 09:27:08;;;;;;;17.20;3.78;;;25.30;95.30;;;;;;5015053;28;20095;-81
2022/06/11 09:29:43;;;;;;;15.45;3.30;;;25.40;92.40;;;;;;5030636;28;20103;-81
2022/06/11 09:32:13;;;;;;;10.38;3.13;;;25.50;93.00;;;;;;5014680;28;20408;-82
2022/06/11 09:34:49;;;;;;;13.05;2.58;;;25.30;90.80;;;;;;5031380;28;20049;-82
2022/06/11 09:37:16;;;;;;;12.68;2.58;;;25.20;89.10;;;;;;5014792;28;20083;-82
2022/06/11 09:40:20;;;;;;;12.27;3.05;;;25.00;90.50;;;;;;5014466;28;20135;-81
2022/06/11 09:43:13;;;;;;;12.50;2.75;;;25.30;90.40;;;;;;5014725;28;20042;-81
2022/06/11 09:45:44;;;;;;;11.90;3.20;;;25.40;84.70;;;;;;5014341;28;20045;-82
2022/06/11 09:48:33;;;;;;;11.60;3.00;;;25.60;82.80;;;;;;5031874;28;20041;-81
2022/06/11 09:51:13;;;;;;;15.35;3.00;;;25.70;81.10;;;;;;5013500;28;20038;-81
2022/06/11 09:54:16;;;;;;;19.05;3.55;;;25.70;82.50;;;;;;5030796;28;20052;-80
2022/06/11 09:57:18;;;;;;;12.38;2.85;;;25.70;78.20;;;;;;5023916;28;20045;-81
2022/06/11 10:00:00;;;;;;;11.68;2.90;;;25.90;79.70;;;;;;5008989;28;20088;-80
2022/06/11 10:05:21;;;;;;;8.85;2.33;;;26.00;71.30;;;;;;5028901;28;20376;-81
2022/06/11 10:07:53;;;;;;;8.80;2.10;;;25.90;75.90;;;;;;5030326;28;20041;-80
2022/06/11 10:10:24;;;;;;;15.20;2.20;;;25.90;74.30;;;;;;5014069;28;20119;-82
2022/06/11 10:12:56;;;;;;;9.27;1.98;;;26.00;70.50;;;;;;5032007;28;20038;-81
2022/06/11 10:15:36;;;;;;;15.00;2.70;;;25.90;68.90;;;;;;5031458;28;20045;-81
2022/06/11 10:18:23;;;;;;;12.18;2.72;;;25.90;68.40;;;;;;5031947;28;20097;-81
2022/06/11 10:21:00;;;;;;;13.90;2.25;;;25.80;67.00;;;;;;5014842;28;20124;-81
2022/06/11 10:23:31;;;;;;;10.38;2.22;;;25.70;68.10;;;;;;5031751;28;20128;-80
2022/06/11 10:26:26;;;;;;;6.75;2.13;;;25.80;66.30;;;;;;5048055;28;20493;-81
2022/06/11 10:29:13;;;;;;;10.80;1.90;;;26.10;62.80;;;;;;5031645;28;20033;-80
2022/06/11 10:31:46;;;;;;;11.77;2.30;;;26.20;60.80;;;;;;5026134;28;20120;-81
2022/06/11 10:34:15;;;;;;;10.30;2.15;;;26.20;62.70;;;;;;5033158;28;20104;-81
2022/06/11 10:36:59;;;;;;;10.93;2.65;;;26.00;60.10;;;;;;5029652;28;20053;-82
2022/06/11 10:39:52;;;;;;;10.25;2.30;;;25.80;61.00;;;;;;5040181;28;20048;-81
2022/06/11 10:42:33;;;;;;;10.02;2.22;;;25.60;64.80;;;;;;5015784;28;20068;-82
2022/06/11 10:45:00;;;;;;;8.13;2.20;;;25.40;62.10;;;;;;5014635;28;20041;-81
2022/06/11 10:47:34;;;;;;;10.43;2.30;;;25.50;63.80;;;;;;5032059;28;20037;-82
2022/06/11 10:50:07;;;;;;;12.07;2.58;;;25.70;64.00;;;;;;5022566;28;20497;-81
2022/06/11 10:52:36;;;;;;;9.32;2.30;;;25.90;63.40;;;;;;5011588;28;20058;-81
2022/06/11 10:55:05;;;;;;;8.43;2.00;;;26.10;63.00;;;;;;5022278;28;20060;-81
2022/06/11 10:57:31;;;;;;;8.57;2.38;;;25.90;62.00;;;;;;5029045;28;20048;-80
2022/06/11 11:00:09;;;;;;;11.63;2.72;;;25.80;61.70;;;;;;5027869;28;20063;-81
2022/06/11 11:02:48;;;;;;;11.43;2.35;;;25.80;61.90;;;;;;5032889;28;20131;-79
2022/06/11 11:05:16;;;;;;;11.43;2.30;;;25.80;62.40;;;;;;5033799;28;20041;-78
2022/06/11 11:07:59;;;;;;;9.32;2.40;;;25.70;61.40;;;;;;5036775;28;20096;-78
2022/06/11 11:10:40;;;;;;;9.38;1.85;;;25.70;61.90;;;;;;5021713;28;20046;-79
2022/06/11 11:13:12;;;;;;;7.72;2.03;;;25.80;62.90;;;;;;5040069;28;20091;-81
2022/06/11 11:15:41;;;;;;;8.32;1.85;;;25.80;60.70;;;;;;5036468;28;20567;-82
2022/06/11 11:18:19;;;;;;;9.77;2.35;;;25.60;61.20;;;;;;5029797;28;20448;-81
2022/06/11 11:20:48;;;;;;;10.32;2.03;;;25.50;60.10;;;;;;5030244;28;20038;-80
2022/06/11 11:23:17;;;;;;;9.23;2.08;;;25.40;58.30;;;;;;5020054;28;20455;-79
2022/06/11 11:25:51;;;;;;;11.23;2.67;;;25.50;59.60;;;;;;5017828;28;20042;-78
2022/06/11 11:28:26;;;;;;;12.98;2.88;;;25.40;58.80;;;;;;5018483;28;20040;-82
2022/06/11 11:31:09;;;;;;;9.70;2.50;;;25.50;60.10;;;;;;5032673;28;20038;-79
2022/06/11 11:33:38;;;;;;;11.30;2.20;;;25.40;59.70;;;;;;5000731;28;20045;-80
2022/06/11 11:36:21;;;;;;;8.75;2.10;;;25.30;60.10;;;;;;5016760;28;20137;-78
2022/06/11 11:39:12;;;;;;;15.32;2.47;;;25.30;58.40;;;;;;5035464;28;20535;-79
2022/06/11 11:41:48;;;;;;;8.75;2.15;;;25.20;59.00;;;;;;5035107;28;20047;-79
2022/06/11 11:44:20;;;;;;;13.57;2.33;;;25.10;60.40;;;;;;5026039;28;20045;-80
2022/06/11 11:46:50;;;;;;;10.23;2.45;;;25.10;61.10;;;;;;5033067;28;20108;-80
2022/06/11 11:49:24;;;;;;;13.20;2.83;;;25.30;61.40;;;;;;5032108;28;20125;-79
2022/06/11 11:51:50;;;;;;;9.30;2.05;;;25.40;60.30;;;;;;5030713;28;20060;-80
2022/06/11 11:54:24;;;;;;;9.70;2.72;;;25.40;61.10;;;;;;5036284;28;20048;-80
2022/06/11 11:57:01;;;;;;;10.90;2.80;;;25.20;60.30;;;;;;5035145;28;20351;-80
2022/06/11 11:59:59;;;;;;;12.93;2.85;;;25.00;61.10;;;;;;5024897;28;20041;-80
2022/06/11 12:02:36;;;;;;;14.23;2.40;;;24.90;62.10;;;;;;5001395;28;20056;-79
2022/06/11 12:05:15;;;;;;;7.65;1.85;;;25.10;61.40;;;;;;5028915;28;20045;-80
2022/06/11 12:07:44;;;;;;;11.02;2.38;;;25.10;60.80;;;;;;5033577;28;20045;-80
2022/06/11 12:10:38;;;;;;;14.68;2.95;;;25.00;62.60;;;;;;5032163;28;20063;-80
2022/06/11 12:13:24;;;;;;;11.63;2.72;;;25.20;65.90;;;;;;5035503;28;20052;-80
2022/06/11 12:15:53;;;;;;;9.73;2.47;;;25.40;62.40;;;;;;5031106;28;20613;-81
2022/06/11 12:18:24;;;;;;;12.07;2.72;;;25.40;63.10;;;;;;5023692;28;20029;-79
2022/06/11 12:20:57;;;;;;;11.45;2.70;;;25.40;62.60;;;;;;5031094;28;20056;-81
2022/06/11 12:23:25;;;;;;;7.32;2.08;;;25.40;60.80;;;;;;5033585;28;20069;-81
2022/06/11 12:26:01;;;;;;;9.73;2.28;;;25.40;63.00;;;;;;5034355;28;20095;-81
2022/06/11 12:28:45;;;;;;;13.75;2.40;;;25.40;62.80;;;;;;5034211;28;20049;-80
2022/06/11 12:31:11;;;;;;;13.35;2.72;;;25.30;62.00;;;;;;5034028;28;20079;-81
2022/06/11 12:33:42;;;;;;;14.18;2.20;;;25.30;62.90;;;;;;5035084;28;20072;-79
2022/06/11 12:36:19;;;;;;;12.00;2.75;;;25.30;63.10;;;;;;5017613;28;20064;-80
2022/06/11 12:39:14;;;;;;;6.55;2.15;;;25.20;62.40;;;;;;5035907;28;20056;-81
2022/06/11 12:41:53;;;;;;;14.07;2.38;;;25.10;61.80;;;;;;5034312;28;20084;-81
2022/06/11 12:44:56;;;;;;;11.32;3.10;;;25.20;63.40;;;;;;5033125;28;20048;-81
2022/06/11 12:48:01;;;;;;;14.55;2.88;;;25.30;65.80;;;;;;5034138;28;20056;-81
2022/06/11 12:50:38;;;;;;;14.05;2.35;;;25.40;63.50;;;;;;5032546;28;20033;-83
2022/06/11 12:53:31;;;;;;;16.75;3.15;;;25.50;65.40;;;;;;5037937;28;20025;-82
2022/06/11 12:56:36;;;;;;;8.85;2.45;;;25.60;63.40;;;;;;5047662;28;20033;-84
2022/06/11 12:59:02;;;;;;;13.25;3.53;;;25.60;61.90;;;;;;5048237;28;20110;-84
2022/06/11 13:01:58;;;;;;;11.93;2.50;;;25.50;63.30;;;;;;5015464;28;20042;-84
2022/06/11 13:04:42;;;;;;;11.10;2.42;;;25.40;61.70;;;;;;5031113;28;20467;-85
2022/06/11 13:07:38;;;;;;;9.65;2.22;;;25.30;62.70;;;;;;5031164;28;20046;-84
2022/06/11 13:10:15;;;;;;;15.45;2.50;;;25.30;61.80;;;;;;5030792;28;20136;-82
2022/06/11 13:13:26;;;;;;;12.27;2.33;;;25.40;65.70;;;;;;5031639;28;20049;-82